Time;durP1;ratioP1;P1;durP2;ratioP2;P2;SDS_P1;SDS_P2;PMS_P1;PMS_P2;Temp;Humidity;BMP_temperature;BMP_pressure;BME280_temperature;BME280_humidity;BME280_pressure;Samples;Min_cycle;Max_cycle;Signal;HPM_P1;HPM_P2
2022/12/09 00:02:14;;;;;;;135.02;17.75;;;-2.20;99.90;;;-4.08;100.00;100347.03;5005833;28;20120;-77
2022/12/09 00:04:40;;;;;;;169.55;19.58;;;-2.20;99.90;;;-3.99;100.00;100363.41;5018519;28;20030;-77
2022/12/09 00:07:06;;;;;;;119.40;19.17;;;-2.10;99.90;;;-3.94;100.00;100372.00;5017755;28;20095;-77
2022/12/09 00:09:32;;;;;;;190.27;20.20;;;-2.10;99.90;;;-3.91;100.00;100371.16;5001417;28;20033;-77
2022/12/09 00:11:57;;;;;;;261.33;21.88;;;-2.10;99.90;;;-3.96;100.00;100367.72;5013896;28;20029;-77
2022/12/09 00:14:23;;;;;;;158.98;19.40;;;-2.10;99.90;;;-3.94;100.00;100378.88;5032580;28;20099;-77
2022/12/09 00:16:54;;;;;;;144.30;17.42;;;-2.00;99.90;;;-3.89;100.00;100381.47;4996338;28;20689;-77
2022/12/09 00:19:20;;;;;;;75.10;17.67;;;-2.00;99.90;;;-3.82;100.00;100384.09;5001500;28;20068;-77
2022/12/09 00:21:46;;;;;;;168.30;20.33;;;-1.90;99.90;;;-3.77;100.00;100386.72;5000599;28;20496;-77
2022/12/09 00:24:13;;;;;;;81.68;18.52;;;-1.90;99.90;;;-3.73;100.00;100386.72;4986131;28;20095;-77
2022/12/09 00:26:39;;;;;;;137.20;20.38;;;-1.90;99.90;;;-3.67;100.00;100382.47;4985725;28;20172;-77
2022/12/09 00:29:06;;;;;;;90.85;19.48;;;-1.80;99.90;;;-3.63;100.00;100386.78;4987066;28;20445;-77
2022/12/09 00:31:35;;;;;;;131.40;20.15;;;-1.80;99.90;;;-3.58;100.00;100392.84;5000512;28;20034;-77
2022/12/09 00:34:04;;;;;;;160.82;21.17;;;-1.70;99.90;;;-3.53;100.00;100401.44;5002977;28;20030;-76
2022/12/09 00:36:30;;;;;;;160.57;23.13;;;-1.70;99.90;;;-3.47;100.00;100398.03;4986215;28;20117;-77
2022/12/09 00:38:58;;;;;;;83.50;18.13;;;-1.70;99.90;;;-3.41;100.00;100395.47;5019503;23;20132;-73
2022/12/09 00:41:25;;;;;;;106.50;20.15;;;-1.60;99.90;;;-3.36;100.00;100392.06;5020361;28;20094;-73
2022/12/09 00:43:51;;;;;;;90.50;18.88;;;-1.60;99.90;;;-3.32;100.00;100390.38;5018681;28;20033;-73
2022/12/09 00:46:17;;;;;;;231.02;23.30;;;-1.50;99.90;;;-3.28;100.00;100386.97;5018365;28;20498;-73
2022/12/09 00:48:44;;;;;;;201.82;22.63;;;-1.50;99.90;;;-3.26;100.00;100389.53;5016286;28;20030;-73
2022/12/09 00:51:15;;;;;;;119.75;21.05;;;-1.50;99.90;;;-3.24;100.00;100390.41;5002247;28;20029;-73
2022/12/09 00:53:41;;;;;;;101.15;21.08;;;-1.40;99.90;;;-3.18;100.00;100393.88;4985254;28;20021;-73
2022/12/09 00:56:07;;;;;;;123.95;21.63;;;-1.40;99.90;;;-3.14;100.00;100387.88;5003905;28;20029;-73
2022/12/09 00:58:33;;;;;;;127.80;23.05;;;-1.30;99.90;;;-3.07;100.00;100385.31;5003587;28;20436;-73
2022/12/09 01:00:59;;;;;;;121.28;22.95;;;-1.30;99.90;;;-3.04;100.00;100386.22;5016470;28;20033;-73
2022/12/09 01:03:25;;;;;;;128.15;24.08;;;-1.20;99.90;;;-3.02;100.00;100378.47;5001467;28;20088;-74
2022/12/09 01:05:51;;;;;;;103.38;23.20;;;-1.20;99.90;;;-2.97;100.00;100382.78;5002774;28;20048;-73
2022/12/09 01:08:16;;;;;;;113.78;23.35;;;-1.20;99.90;;;-2.93;100.00;100378.50;4985652;28;20498;-74
2022/12/09 01:10:44;;;;;;;97.07;23.92;;;-1.10;99.90;;;-2.84;100.00;100378.53;5002936;28;20054;-73
2022/12/09 01:13:14;;;;;;;112.22;23.33;;;-1.10;99.90;;;-2.79;100.00;100370.81;5001822;28;20483;-73
2022/12/09 01:15:41;;;;;;;105.22;25.13;;;-1.00;99.90;;;-2.75;100.00;100381.13;5019734;28;20046;-73
2022/12/09 01:18:08;;;;;;;103.50;22.73;;;-1.00;99.90;;;-2.72;100.00;100383.72;5001851;28;20060;-73
2022/12/09 01:20:34;;;;;;;100.03;23.55;;;-0.90;99.90;;;-2.69;100.00;100385.44;5003430;28;20544;-73
2022/12/09 01:23:01;;;;;;;106.50;24.48;;;-0.90;99.90;;;-2.70;100.00;100382.00;5000918;28;20545;-73
2022/12/09 01:25:27;;;;;;;90.97;24.05;;;-0.90;99.90;;;-2.65;100.00;100383.75;5005475;28;20549;-73
2022/12/09 01:27:53;;;;;;;102.57;25.83;;;-0.90;99.90;;;-2.62;100.00;100383.72;5022632;28;20042;-73
2022/12/09 01:30:19;;;;;;;123.68;27.20;;;-0.80;99.90;;;-2.61;100.00;100390.59;5025162;28;20107;-73
2022/12/09 01:32:45;;;;;;;104.50;26.35;;;-0.80;99.90;;;-2.60;100.00;100385.44;5005146;28;20037;-73
2022/12/09 01:35:11;;;;;;;88.43;25.60;;;-0.80;99.90;;;-2.55;100.00;100391.50;5024551;28;20034;-73
2022/12/09 01:37:37;;;;;;;94.85;24.38;;;-0.70;99.90;;;-2.54;100.00;100403.50;5004419;28;20592;-73
2022/12/09 01:40:15;;;;;;;79.88;22.92;;;-0.70;99.90;;;-2.51;100.00;100397.50;5005974;28;20033;-73
2022/12/09 01:42:41;;;;;;;84.57;23.85;;;-0.70;99.90;;;-2.53;100.00;100401.78;5017176;28;20068;-73
2022/12/09 01:45:19;;;;;;;79.55;22.83;;;-0.70;99.90;;;-2.50;100.00;100404.38;5024762;28;20463;-74
2022/12/09 01:47:58;;;;;;;66.10;20.27;;;-0.70;99.90;;;-2.49;100.00;100401.78;5022141;28;20497;-74
2022/12/09 01:50:26;;;;;;;51.80;18.73;;;-0.70;99.90;;;-2.49;100.00;100406.09;5008855;28;20044;-73
2022/12/09 01:52:52;;;;;;;62.75;19.27;;;-0.70;99.90;;;-2.47;100.00;100409.53;5006263;28;20037;-73
2022/12/09 01:55:18;;;;;;;58.15;18.25;;;-0.70;99.90;;;-2.46;100.00;100406.13;5024079;28;20040;-73
2022/12/09 01:57:45;;;;;;;55.97;18.65;;;-0.60;99.90;;;-2.41;100.00;100411.28;5005805;28;20048;-73
2022/12/09 02:00:12;;;;;;;55.97;18.17;;;-0.60;99.90;;;-2.41;100.00;100406.97;5003602;28;20083;-73
2022/12/09 02:02:40;;;;;;;60.03;18.67;;;-0.60;99.90;;;-2.40;100.00;100398.34;5006984;28;20021;-73
2022/12/09 02:05:06;;;;;;;59.25;18.30;;;-0.60;99.90;;;-2.39;100.00;100397.53;5020840;28;20447;-73
2022/12/09 02:07:33;;;;;;;62.58;20.27;;;-0.60;99.90;;;-2.37;100.00;100398.38;5007249;28;20156;-73
2022/12/09 02:09:59;;;;;;;57.15;18.50;;;-0.60;99.90;;;-2.34;100.00;100403.53;5005994;28;20021;-73
2022/12/09 02:12:49;;;;;;;57.08;18.33;;;-0.50;99.90;;;-2.32;100.00;100401.81;5005823;28;20029;-73
2022/12/09 02:15:24;;;;;;;53.40;18.77;;;-0.60;99.90;;;-2.35;100.00;100395.81;5018562;28;20040;-73
2022/12/09 02:18:00;;;;;;;57.40;17.80;;;-0.60;99.90;;;-2.35;100.00;100388.94;5006470;28;20029;-73
2022/12/09 02:20:48;;;;;;;57.38;19.98;;;-0.50;99.90;;;-2.33;100.00;100386.34;5006447;28;20040;-73
2022/12/09 02:23:47;;;;;;;65.68;20.10;;;-0.50;99.90;;;-2.32;100.00;100391.50;5021519;28;20018;-73
2022/12/09 02:27:04;;;;;;;66.97;20.85;;;-0.50;99.90;;;-2.30;100.00;100384.63;5001093;28;20037;-73
2022/12/09 02:29:59;;;;;;;;;;;-0.50;99.90;;;-2.32;100.00;100388.06;4992609;28;20564;-74
2022/12/09 02:32:30;;;;;;;67.18;19.90;;;-0.50;99.90;;;-2.30;100.00;100391.50;5008338;28;20416;-73
2022/12/09 02:35:11;;;;;;;68.75;21.58;;;-0.50;99.90;;;-2.28;100.00;100384.63;5020624;28;20034;-74
2022/12/09 02:37:59;;;;;;;70.18;20.98;;;-0.50;99.90;;;-2.28;100.00;100372.59;5004254;28;20105;-73
2022/12/09 02:40:53;;;;;;;63.97;20.90;;;-0.50;99.90;;;-2.27;100.00;100379.47;5020237;28;20064;-73
2022/12/09 02:43:24;;;;;;;62.67;20.08;;;-0.50;99.90;;;-2.26;100.00;100385.50;5004917;28;20049;-73
2022/12/09 02:45:53;;;;;;;65.38;19.58;;;-0.50;99.90;;;-2.23;100.00;100379.47;5020939;28;20118;-73
2022/12/09 02:48:26;;;;;;;58.55;19.27;;;-0.40;99.90;;;-2.21;100.00;100380.34;4987988;28;20033;-74
2022/12/09 02:50:55;;;;;;;61.20;20.73;;;-0.40;99.90;;;-2.18;100.00;100385.47;5004715;28;20028;-74
2022/12/09 02:53:25;;;;;;;61.72;19.20;;;-0.40;99.90;;;-2.13;100.00;100396.69;5003509;28;20137;-73
2022/12/09 02:55:53;;;;;;;64.07;20.23;;;-0.40;99.90;;;-2.12;100.00;100391.50;5006630;28;20034;-74
2022/12/09 02:58:19;;;;;;;61.33;19.25;;;-0.40;99.90;;;-2.09;100.00;100390.66;5004264;28;20117;-73
2022/12/09 03:00:45;;;;;;;54.50;19.00;;;-0.30;99.90;;;-2.09;100.00;100391.50;5003770;28;20026;-74
2022/12/09 03:03:16;;;;;;;62.78;19.38;;;-0.30;99.90;;;-2.08;100.00;100388.06;5003415;28;20028;-73
2022/12/09 03:06:21;;;;;;;60.88;19.48;;;-0.30;99.90;;;-2.05;100.00;100407.84;5007311;28;20037;-73
2022/12/09 03:08:55;;;;;;;56.75;19.00;;;-0.30;99.90;;;-2.07;100.00;100407.00;4990102;28;20041;-73
2022/12/09 03:11:23;;;;;;;53.85;18.17;;;-0.30;99.90;;;-2.11;100.00;100405.28;5022487;28;20049;-73
2022/12/09 03:14:13;;;;;;;58.72;19.85;;;-0.30;99.90;;;-2.11;100.00;100403.56;5004241;28;20026;-73
2022/12/09 03:16:55;;;;;;;58.65;18.95;;;-0.30;99.90;;;-2.09;100.00;100403.56;5020734;28;20064;-73
2022/12/09 03:19:24;;;;;;;64.82;18.65;;;-0.30;99.90;;;-2.08;100.00;100402.69;5022581;28;20091;-73
2022/12/09 03:21:56;;;;;;;68.13;21.38;;;-0.30;99.90;;;-2.08;100.00;100397.53;5002827;28;20029;-73
2022/12/09 03:24:31;;;;;;;62.83;20.20;;;-0.30;99.90;;;-2.09;100.00;100396.66;5003714;28;20082;-74
2022/12/09 03:27:03;;;;;;;66.70;20.10;;;-0.30;99.90;;;-2.07;100.00;100394.09;5002135;28;20044;-73
2022/12/09 03:29:33;;;;;;;67.95;21.10;;;-0.30;99.90;;;-2.08;100.00;100397.53;5004496;28;20044;-74
2022/12/09 03:31:59;;;;;;;62.80;19.63;;;-0.30;99.90;;;-2.10;100.00;100401.81;5018059;28;20068;-73
2022/12/09 03:34:32;;;;;;;58.72;19.52;;;-0.30;99.90;;;-2.09;100.00;100391.50;5002046;28;20100;-74
2022/12/09 03:37:01;;;;;;;56.70;17.92;;;-0.30;99.90;;;-2.16;100.00;100400.13;5003618;28;20561;-73
2022/12/09 03:39:34;;;;;;;58.20;18.60;;;-0.30;99.90;;;-2.13;100.00;100407.00;5003107;28;20068;-73
2022/12/09 03:42:08;;;;;;;63.58;19.27;;;-0.30;99.90;;;-2.12;100.00;100396.66;5004212;28;20025;-73
2022/12/09 03:44:44;;;;;;;52.72;18.13;;;-0.30;99.90;;;-2.08;100.00;100400.09;5019361;28;20025;-74
2022/12/09 03:47:09;;;;;;;;;;;-0.30;99.90;;;-2.07;100.00;100396.69;5020257;28;20030;-74
2022/12/09 03:49:38;;;;;;;51.38;17.65;;;-0.30;99.90;;;-2.08;100.00;100403.53;5017033;28;20304;-74
2022/12/09 03:52:38;;;;;;;56.00;18.33;;;-0.30;99.90;;;-2.04;100.00;100394.09;5001887;28;20066;-74
2022/12/09 03:55:32;;;;;;;57.10;18.77;;;-0.30;99.90;;;-2.01;100.00;100396.66;5022215;28;20060;-73
2022/12/09 03:58:00;;;;;;;66.55;19.65;;;-0.20;99.90;;;-1.98;100.00;100385.50;5008635;28;20034;-73
2022/12/09 04:00:26;;;;;;;68.50;19.10;;;-0.20;99.90;;;-1.98;100.00;100386.34;5004793;28;20056;-74
2022/12/09 04:02:52;;;;;;;69.32;19.27;;;-0.20;99.90;;;-1.96;100.00;100389.78;4985385;28;20018;-73
2022/12/09 04:05:17;;;;;;;60.60;19.70;;;-0.20;99.90;;;-1.95;100.00;100388.91;5003876;28;20047;-74
2022/12/09 04:07:43;;;;;;;68.53;19.50;;;-0.20;99.90;;;-1.94;100.00;100380.31;5002604;28;20029;-74
2022/12/09 04:10:10;;;;;;;73.15;19.67;;;-0.20;99.90;;;-1.92;100.00;100373.44;5001978;28;20038;-74
2022/12/09 04:12:35;;;;;;;65.90;19.52;;;-0.20;99.90;;;-1.89;100.00;100373.41;5019670;28;20037;-74
2022/12/09 04:15:01;;;;;;;68.45;19.90;;;-0.10;99.90;;;-1.87;100.00;100379.44;5021270;28;20494;-74
2022/12/09 04:17:27;;;;;;;66.78;19.95;;;-0.10;99.90;;;-1.89;100.00;100377.72;5003770;28;20034;-74
2022/12/09 04:19:53;;;;;;;71.93;19.67;;;-0.10;99.90;;;-1.91;100.00;100382.88;5023051;28;20049;-73
2022/12/09 04:22:19;;;;;;;66.13;19.02;;;-0.10;99.90;;;-1.91;100.00;100385.47;5000842;28;20112;-74
2022/12/09 04:24:44;;;;;;;65.05;18.00;;;-0.10;99.90;;;-1.87;100.00;100392.34;5019108;28;20036;-74
2022/12/09 04:27:11;;;;;;;62.95;18.73;;;-0.10;99.90;;;-1.86;100.00;100394.09;5000820;28;20121;-73
2022/12/09 04:29:36;;;;;;;62.80;18.90;;;-0.10;99.90;;;-1.84;100.00;100391.47;5016808;28;20022;-74
2022/12/09 04:32:03;;;;;;;68.80;19.52;;;-0.10;99.90;;;-1.83;100.00;100393.22;5004291;28;20505;-74
2022/12/09 04:34:28;;;;;;;61.90;17.98;;;-0.10;99.90;;;-1.80;100.00;100392.34;5019137;28;20041;-73
2022/12/09 04:36:54;;;;;;;63.30;19.15;;;0.00;99.90;;;-1.83;100.00;100398.38;5001612;28;20029;-73
2022/12/09 04:39:20;;;;;;;62.53;18.42;;;-0.10;99.90;;;-1.88;100.00;100390.66;5001342;28;20084;-73
2022/12/09 04:41:46;;;;;;;59.20;18.08;;;-0.10;99.90;;;-1.93;100.00;100400.09;5001235;28;20038;-73
2022/12/09 04:44:12;;;;;;;64.57;19.35;;;-0.10;99.90;;;-1.91;100.00;100390.63;5019240;28;20136;-73
2022/12/09 04:46:37;;;;;;;67.13;18.75;;;-0.10;99.90;;;-1.90;100.00;100387.22;5018804;28;20064;-74
2022/12/09 04:49:04;;;;;;;68.03;19.65;;;-0.10;99.90;;;-1.86;100.00;100395.78;5000142;28;20448;-74
2022/12/09 04:51:30;;;;;;;69.65;19.13;;;-0.10;99.90;;;-1.81;100.00;100400.94;5001277;28;20108;-73
2022/12/09 04:53:55;;;;;;;56.60;17.35;;;-0.10;99.90;;;-1.82;100.00;100394.06;4997838;28;20033;-74
2022/12/09 04:56:22;;;;;;;54.67;18.13;;;-0.10;99.90;;;-1.82;100.00;100399.22;5004050;28;20136;-74
2022/12/09 04:58:49;;;;;;;63.15;18.52;;;0.00;99.90;;;-1.89;100.00;100399.22;5021969;28;20493;-74
2022/12/09 05:01:20;;;;;;;63.78;18.15;;;-0.10;99.90;;;-1.83;100.00;100403.53;5017052;28;20029;-74
2022/12/09 05:03:53;;;;;;;64.50;18.73;;;-0.10;99.90;;;-1.81;100.00;100400.94;4998393;28;20091;-73
2022/12/09 05:06:21;;;;;;;62.15;18.95;;;0.00;99.90;;;-1.78;100.00;100395.78;5007677;28;20132;-73
2022/12/09 05:08:47;;;;;;;71.45;19.00;;;0.00;99.90;;;-1.75;100.00;100400.94;5002354;28;20030;-73
2022/12/09 05:11:15;;;;;;;57.42;17.73;;;0.00;99.90;;;-1.75;100.00;100396.66;5002142;28;20077;-73
2022/12/09 05:13:41;;;;;;;66.38;18.92;;;0.00;99.90;;;-1.71;100.00;100400.06;5001918;28;20041;-73
2022/12/09 05:16:11;;;;;;;64.97;18.30;;;0.00;99.90;;;-1.68;100.00;100400.06;5004255;28;20033;-73
2022/12/09 05:18:37;;;;;;;64.45;18.60;;;0.10;99.90;;;-1.67;100.00;100391.47;5020367;28;20061;-73
2022/12/09 05:21:10;;;;;;;61.03;17.40;;;0.10;99.90;;;-1.67;100.00;100401.78;5003285;28;20054;-73
2022/12/09 05:23:36;;;;;;;65.28;18.30;;;0.10;99.90;;;-1.69;100.00;100404.34;5001337;28;20153;-73
2022/12/09 05:26:09;;;;;;;62.35;17.63;;;0.10;99.90;;;-1.73;100.00;100396.63;5008300;28;20037;-73
2022/12/09 05:28:35;;;;;;;56.97;17.15;;;0.10;99.90;;;-1.74;100.00;100403.50;5001552;28;20036;-73
2022/12/09 05:31:04;;;;;;;59.20;17.85;;;0.10;99.90;;;-1.70;100.00;100394.06;5003481;28;20041;-73
2022/12/09 05:33:30;;;;;;;52.03;15.40;;;0.10;99.90;;;-1.77;100.00;100397.50;5002815;28;20048;-73
2022/12/09 05:35:56;;;;;;;53.88;15.43;;;0.10;99.90;;;-1.75;100.00;100400.94;5001668;28;20041;-73
2022/12/09 05:38:23;;;;;;;52.60;15.98;;;0.10;99.90;;;-1.73;100.00;100397.50;5000743;28;20072;-73
2022/12/09 05:40:51;;;;;;;62.45;17.05;;;0.10;99.90;;;-1.87;100.00;100392.34;5001824;28;20073;-73
2022/12/09 05:43:17;;;;;;;49.35;15.93;;;0.00;99.90;;;-1.86;100.00;100391.50;5001586;28;20030;-73
2022/12/09 05:45:44;;;;;;;59.65;16.90;;;0.00;99.90;;;-1.90;100.00;100400.09;5001055;28;20112;-73
2022/12/09 05:48:10;;;;;;;65.43;18.42;;;0.00;99.90;;;-1.87;100.00;100401.81;5018667;28;20033;-73
2022/12/09 05:50:36;;;;;;;55.38;16.85;;;0.00;99.90;;;-1.89;100.00;100395.78;5017899;28;20034;-73
2022/12/09 05:53:02;;;;;;;56.20;16.83;;;0.00;99.90;;;-1.90;100.00;100392.38;5019829;28;20080;-73
2022/12/09 05:55:28;;;;;;;53.30;16.33;;;0.00;99.90;;;-1.86;100.00;100399.25;5001837;28;20509;-73
2022/12/09 05:57:53;;;;;;;43.08;14.98;;;0.00;99.90;;;-1.89;100.00;100396.66;5002546;28;20069;-73
2022/12/09 06:00:21;;;;;;;46.63;14.77;;;0.00;99.90;;;-1.88;100.00;100389.75;4999992;28;20065;-73
2022/12/09 06:02:47;;;;;;;46.38;14.32;;;0.00;99.90;;;-1.83;100.00;100387.19;5000914;28;20046;-74
2022/12/09 06:05:13;;;;;;;45.33;15.20;;;0.00;99.90;;;-1.81;100.00;100390.59;5002616;28;20116;-73
2022/12/09 06:07:38;;;;;;;44.90;16.05;;;0.00;99.90;;;-1.77;100.00;100392.31;5002626;28;20025;-73
2022/12/09 06:10:05;;;;;;;38.75;14.38;;;0.00;99.90;;;-1.78;100.00;100395.78;5003190;28;20055;-73
2022/12/09 06:12:31;;;;;;;34.00;13.05;;;0.00;99.90;;;-1.78;100.00;100393.19;5005085;28;20547;-73
2022/12/09 06:14:57;;;;;;;35.13;13.25;;;0.00;99.90;;;-1.77;100.00;100394.91;5004738;28;20034;-73
2022/12/09 06:17:23;;;;;;;36.90;13.90;;;0.00;99.90;;;-1.82;100.00;100391.50;5023604;28;20116;-73
2022/12/09 06:19:48;;;;;;;26.70;11.68;;;0.00;99.90;;;-1.79;100.00;100394.94;4989763;28;20101;-73
2022/12/09 06:22:15;;;;;;;36.72;14.15;;;0.10;99.90;;;-1.77;100.00;100397.50;4988364;28;20514;-73
2022/12/09 06:24:40;;;;;;;44.63;15.75;;;0.10;99.90;;;-1.70;100.00;100399.22;5004825;28;20029;-72
2022/12/09 06:27:06;;;;;;;36.83;14.57;;;0.10;99.90;;;-1.71;100.00;100403.50;5004269;28;20029;-73
2022/12/09 06:29:32;;;;;;;35.83;14.02;;;0.10;99.90;;;-1.75;100.00;100404.41;5022483;28;20570;-73
2022/12/09 06:31:58;;;;;;;30.85;13.57;;;0.10;99.90;;;-1.80;100.00;100407.84;4986782;28;20040;-73
2022/12/09 06:34:23;;;;;;;34.70;14.27;;;0.10;99.90;;;-1.73;100.00;100406.94;5004091;28;20025;-73
2022/12/09 06:36:51;;;;;;;31.20;13.18;;;0.10;99.90;;;-1.72;100.00;100412.13;5023942;28;20025;-73
2022/12/09 06:39:17;;;;;;;42.58;16.05;;;0.10;99.90;;;-1.67;100.00;100412.97;4988141;28;20049;-72
2022/12/09 06:41:43;;;;;;;45.78;16.63;;;0.10;99.90;;;-1.69;100.00;100412.09;5022314;28;20140;-73
2022/12/09 06:44:11;;;;;;;44.63;16.65;;;0.10;99.90;;;-1.65;100.00;100412.97;5022088;28;20034;-73
2022/12/09 06:46:37;;;;;;;43.00;16.17;;;0.20;99.90;;;-1.62;100.00;100414.69;5000497;28;20029;-73
2022/12/09 06:49:03;;;;;;;36.17;15.32;;;0.20;99.90;;;-1.68;100.00;100403.50;5021628;28;20116;-73
2022/12/09 06:51:29;;;;;;;33.30;14.35;;;0.10;99.90;;;-1.75;100.00;100406.09;5005270;28;20033;-73
2022/12/09 06:53:55;;;;;;;40.58;15.23;;;0.20;99.90;;;-1.73;100.00;100402.69;5004721;28;20056;-74
2022/12/09 06:56:21;;;;;;;45.08;16.63;;;0.20;99.90;;;-1.65;100.00;100407.81;5002957;28;20490;-73
2022/12/09 06:58:47;;;;;;;43.47;15.48;;;0.20;99.90;;;-1.61;100.00;100408.66;4993053;28;20463;-73
2022/12/09 07:01:22;;;;;;;33.30;14.60;;;0.20;99.90;;;-1.59;100.00;100412.13;5006058;28;20108;-73
2022/12/09 07:03:53;;;;;;;39.15;15.38;;;0.20;99.90;;;-1.57;100.00;100416.41;5034059;23;20054;-84
2022/12/09 07:06:53;;;;;;;38.85;15.90;;;0.20;99.90;;;-1.52;100.00;100409.50;5020279;28;20120;-83
2022/12/09 07:09:26;;;;;;;39.58;15.45;;;0.20;99.90;;;-1.49;100.00;100409.50;5021016;28;20022;-83
2022/12/09 07:11:52;;;;;;;35.03;14.77;;;0.30;99.90;;;-1.43;100.00;100411.19;5003210;28;20109;-84
2022/12/09 07:14:19;;;;;;;35.85;15.20;;;0.30;99.90;;;-1.43;100.00;100413.78;4997583;28;20034;-83
2022/12/09 07:16:45;;;;;;;39.45;16.25;;;0.30;99.90;;;-1.42;100.00;100412.94;5005199;28;20026;-83
2022/12/09 07:19:21;;;;;;;32.83;13.65;;;0.30;99.90;;;-1.42;100.00;100407.75;4994817;28;20058;-84
2022/12/09 07:21:49;;;;;;;29.00;13.80;;;0.30;99.90;;;-1.40;100.00;100411.22;4999579;28;20022;-82
2022/12/09 07:24:17;;;;;;;31.67;14.52;;;0.40;99.90;;;-1.37;100.00;100413.75;4978211;28;20483;-83
2022/12/09 07:26:46;;;;;;;33.15;14.50;;;0.40;99.90;;;-1.34;100.00;100415.47;4995141;28;20035;-85
2022/12/09 07:29:14;;;;;;;30.75;14.13;;;0.40;99.90;;;-1.37;100.00;100428.41;4995948;28;20022;-85
2022/12/09 07:31:40;;;;;;;33.92;14.63;;;0.40;99.90;;;-1.32;100.00;100431.84;4995266;28;20041;-84
2022/12/09 07:34:06;;;;;;;31.48;14.02;;;0.40;99.90;;;-1.30;100.00;100430.09;4996677;28;20104;-82
2022/12/09 07:36:39;;;;;;;27.73;13.20;;;0.40;99.90;;;-1.30;100.00;100430.09;4986550;28;20312;-84
2022/12/09 07:39:25;;;;;;;32.85;14.57;;;0.50;99.90;;;-1.26;100.00;100429.22;4999641;28;20057;-83
2022/12/09 07:42:02;;;;;;;;;;;;;;;;;;;;;
2022/12/09 07:44:28;;;;;;;38.70;16.02;;;0.50;99.90;;;-1.19;100.00;100436.09;5009951;28;20614;-83
2022/12/09 07:46:56;;;;;;;36.60;16.25;;;0.50;99.90;;;-1.17;100.00;100431.78;4983766;28;20029;-84
2022/12/09 07:49:26;;;;;;;33.95;14.63;;;0.50;99.90;;;-1.16;100.00;100441.28;4986819;28;20026;-84
2022/12/09 07:51:55;;;;;;;31.65;14.23;;;0.60;99.90;;;-1.17;100.00;100441.25;4996626;28;20065;-84
2022/12/09 07:54:21;;;;;;;35.22;14.73;;;0.60;99.90;;;-1.17;100.00;100442.13;4998083;28;20060;-85
2022/12/09 07:56:47;;;;;;;32.70;14.55;;;0.60;99.90;;;-1.13;100.00;100440.38;5003378;28;20030;-83
2022/12/09 07:59:18;;;;;;;32.08;14.95;;;0.60;99.90;;;-1.08;100.00;100438.63;4987443;28;20022;-83
2022/12/09 08:01:44;;;;;;;25.13;12.70;;;0.60;99.90;;;-1.10;100.00;100433.50;4996531;28;20030;-85
2022/12/09 08:04:11;;;;;;;25.50;12.65;;;0.60;99.90;;;-1.10;100.00;100441.25;4985669;28;20506;-82
2022/12/09 08:06:37;;;;;;;25.17;12.43;;;0.70;99.90;;;-1.10;100.00;100443.84;4995475;28;20109;-83
2022/12/09 08:09:14;;;;;;;24.85;12.23;;;0.70;99.90;;;-1.10;100.00;100443.84;4981811;28;20068;-82
2022/12/09 08:11:40;;;;;;;29.35;14.68;;;0.70;99.90;;;-1.06;100.00;100437.78;5011060;28;20053;-83
2022/12/09 08:14:14;;;;;;;36.22;16.10;;;0.70;99.90;;;-1.08;100.00;100446.38;4995882;28;20041;-84
2022/12/09 08:16:41;;;;;;;37.13;15.68;;;0.70;99.90;;;-1.06;100.00;100442.06;4977256;28;20040;-84
2022/12/09 08:19:11;;;;;;;36.42;16.50;;;0.70;99.90;;;-1.05;100.00;100451.56;4984824;28;20037;-83
2022/12/09 08:21:42;;;;;;;35.90;16.65;;;0.70;99.90;;;-0.99;100.00;100443.78;5007666;28;20038;-83
2022/12/09 08:27:07;;;;;;;38.85;15.93;;;0.80;99.90;;;-0.95;100.00;100445.50;5003755;28;20046;-82
2022/12/09 08:29:32;;;;;;;39.35;16.88;;;0.80;99.90;;;-0.89;100.00;100458.38;5012952;28;20053;-82
2022/12/09 08:32:06;;;;;;;39.00;17.38;;;0.80;99.90;;;-0.82;100.00;100461.81;4986374;28;20038;-82
2022/12/09 08:34:34;;;;;;;43.13;17.83;;;0.90;99.90;;;-0.80;100.00;100456.63;5000806;28;20026;-83
2022/12/09 08:37:00;;;;;;;34.42;15.23;;;0.90;99.90;;;-0.81;100.00;100454.94;5012779;28;20034;-83
2022/12/09 08:39:34;;;;;;;30.52;14.35;;;0.80;99.90;;;-0.89;100.00;100458.38;5004477;28;20062;-83
2022/12/09 08:42:00;;;;;;;27.75;13.77;;;0.80;99.90;;;-0.94;100.00;100454.13;4986144;28;20498;-82
2022/12/09 08:44:26;;;;;;;27.08;13.95;;;0.90;99.90;;;-0.95;100.00;100454.97;5012164;28;20066;-83
2022/12/09 08:46:55;;;;;;;23.45;13.20;;;0.80;99.90;;;-0.97;100.00;100448.94;4999991;28;20041;-84
2022/12/09 08:49:29;;;;;;;21.83;12.57;;;0.80;99.90;;;-0.96;100.00;100453.25;4989581;28;20025;-84
2022/12/09 08:52:06;;;;;;;21.60;12.38;;;0.80;99.90;;;-0.95;100.00;100453.25;4986102;28;20513;-82
2022/12/09 08:54:48;;;;;;;23.40;12.10;;;0.80;99.90;;;-0.90;100.00;100450.66;5016040;28;20045;-83
2022/12/09 08:57:27;;;;;;;25.17;12.70;;;0.80;99.90;;;-0.89;100.00;100450.63;4981658;28;20052;-83
2022/12/09 08:59:56;;;;;;;24.70;12.77;;;0.80;99.90;;;-0.86;100.00;100452.38;4997658;28;20034;-83
2022/12/09 09:02:29;;;;;;;26.83;14.13;;;0.80;99.90;;;-0.86;100.00;100452.38;5003617;28;20101;-82
2022/12/09 09:04:56;;;;;;;23.90;12.88;;;0.90;99.90;;;-0.83;100.00;100454.91;4989668;28;20114;-83
2022/12/09 09:07:24;;;;;;;24.55;13.85;;;0.90;99.90;;;-0.78;100.00;100454.91;5013111;28;20034;-83
2022/12/09 09:10:01;;;;;;;25.20;13.55;;;0.90;99.90;;;-0.77;100.00;100452.31;4988168;28;20045;-83
2022/12/09 09:12:41;;;;;;;;;;;;;;;;;;;;;
2022/12/09 09:15:10;;;;;;;26.88;13.77;;;1.00;99.90;;;-0.67;100.00;100453.13;5014564;28;20121;-82
2022/12/09 09:17:42;;;;;;;25.40;13.35;;;1.00;99.90;;;-0.66;100.00;100460.03;4987748;28;20037;-83
2022/12/09 09:20:11;;;;;;;30.20;14.20;;;1.00;99.90;;;-0.58;100.00;100457.38;5005943;28;20042;-82
2022/12/09 09:22:37;;;;;;;24.98;13.48;;;1.00;99.90;;;-0.55;100.00;100455.66;5005421;28;20033;-82
2022/12/09 09:25:03;;;;;;;25.05;13.80;;;1.10;99.90;;;-0.53;100.00;100453.91;5006937;28;20037;-83
2022/12/09 09:27:38;;;;;;;26.40;13.43;;;1.10;99.90;;;-0.46;100.00;100455.59;5015204;28;20072;-82
2022/12/09 09:30:08;;;;;;;21.33;11.07;;;1.10;99.90;;;-0.46;100.00;100454.72;5014495;28;20041;-82
2022/12/09 09:32:39;;;;;;;21.02;11.70;;;1.20;99.90;;;-0.45;100.00;100453.88;4998053;28;20084;-82
2022/12/09 09:35:08;;;;;;;20.70;11.52;;;1.20;99.90;;;-0.43;100.00;100458.16;5006525;28;20130;-82
2022/12/09 09:37:45;;;;;;;20.30;11.57;;;1.20;99.90;;;-0.42;100.00;100446.94;5016715;28;20049;-82
2022/12/09 09:40:16;;;;;;;22.00;12.63;;;1.20;99.90;;;-0.40;100.00;100452.13;5006205;28;20040;-82
2022/12/09 09:42:53;;;;;;;23.38;12.77;;;1.30;99.90;;;-0.35;100.00;100444.31;4995803;28;20042;-82
2022/12/09 09:45:28;;;;;;;25.60;13.98;;;1.30;99.90;;;-0.27;100.00;100443.41;5013895;28;20076;-81
2022/12/09 09:48:03;;;;;;;26.17;14.27;;;1.30;99.90;;;-0.18;100.00;100442.47;4994576;28;20030;-82
2022/12/09 09:50:53;;;;;;;24.58;14.23;;;1.40;99.90;;;-0.13;100.00;100448.50;4999948;28;20060;-81
2022/12/09 09:53:30;;;;;;;20.33;12.00;;;2.50;99.90;;;-0.19;100.00;100445.94;4992907;28;20125;-81
2022/12/09 09:56:11;;;;;;;23.35;12.63;;;1.40;99.90;;;-0.22;100.00;100453.72;5020434;28;20053;-81
2022/12/09 09:59:00;;;;;;;1999.90;999.90;;;1.40;99.90;;;-0.16;100.00;100442.47;5002132;28;20507;-82
2022/12/09 10:01:35;;;;;;;27.33;11.70;;;1.50;99.90;;;-0.05;100.00;100445.84;4999536;28;20068;-82
2022/12/09 10:04:27;;;;;;;16.27;10.27;;;1.50;99.90;;;0.02;100.00;100442.31;4998789;28;20042;-81
2022/12/09 10:07:49;;;;;;;8.63;6.70;;;1.60;99.90;;;-0.06;100.00;100439.81;5016519;28;20041;-81
2022/12/09 10:10:46;;;;;;;12.73;7.68;;;1.60;99.90;;;-0.04;100.00;100435.47;5009603;28;20057;-81
2022/12/09 10:13:45;;;;;;;14.80;9.50;;;1.60;99.90;;;0.08;99.71;100431.91;5014964;28;20040;-81
2022/12/09 10:16:47;;;;;;;22.08;11.43;;;1.60;99.90;;;0.12;99.40;100440.53;5000392;28;20049;-80
2022/12/09 10:19:41;;;;;;;14.38;8.98;;;1.70;99.90;;;0.18;99.01;100451.69;4999726;28;20026;-81